sensor_id;sensor_type;location;lat;lon;timestamp;pressure;altitude;pressure_sealevel;temperature;humidity
17950;BME280;9100;48.700;9.316;2022-07-29T00:00:37;97500.5;;;20.95;100
17950;BME280;9100;48.700;9.316;2022-07-29T00:01:37;97498.90000000001;;;20.94;100
17950;BME280;9100;48.700;9.316;2022-07-29T00:02:37;97457;;;20.64;100
17950;BME280;9100;48.700;9.316;2022-07-29T00:03:37;97502;;;20.91;100
17950;BME280;9100;48.700;9.316;2022-07-29T00:04:11;97499.3;;;20.86;100
17950;BME280;9100;48.700;9.316;2022-07-29T00:04:37;97498;;;20.89;100
17950;BME280;9100;48.700;9.316;2022-07-29T00:05:38;97489;;;20.91;100
17950;BME280;9100;48.700;9.316;2022-07-29T00:06:37;97498.90000000001;;;20.94;100
17950;BME280;9100;48.700;9.316;2022-07-29T00:07:37;97502.5;;;20.93;100
17950;BME280;9100;48.700;9.316;2022-07-29T00:08:37;97497.29999999999;;;20.93;100
17950;BME280;9100;48.700;9.316;2022-07-29T00:09:11;97493.6;;;20.89;100
17950;BME280;9100;48.700;9.316;2022-07-29T00:09:37;97496.8;;;20.91;100
17950;BME280;9100;48.700;9.316;2022-07-29T00:10:37;97497.29999999999;;;20.93;100
17950;BME280;9100;48.700;9.316;2022-07-29T00:11:37;97491.09999999999;;;20.94;100
17950;BME280;9100;48.700;9.316;2022-07-29T00:12:37;97484.3;;;20.93;100
17950;BME280;9100;48.700;9.316;2022-07-29T00:13:37;97482.7;;;20.92;100
17950;BME280;9100;48.700;9.316;2022-07-29T00:14:11;97485.79999999999;;;20.89;100
17950;BME280;9100;48.700;9.316;2022-07-29T00:14:37;97481.4;;;20.9;100
17950;BME280;9100;48.700;9.316;2022-07-29T00:15:37;97481.7;;;20.93;100
17950;BME280;9100;48.700;9.316;2022-07-29T00:16:37;97479.1;;;20.93;100
17950;BME280;9100;48.700;9.316;2022-07-29T00:17:37;97476.5;;;20.93;100
17950;BME280;9100;48.700;9.316;2022-07-29T00:18:37;97476.5;;;20.93;100
17950;BME280;9100;48.700;9.316;2022-07-29T00:19:11;97479.1;;;20.88;100
17950;BME280;9100;48.700;9.316;2022-07-29T00:19:37;97478.8;;;20.9;100
17950;BME280;9100;48.700;9.316;2022-07-29T00:20:37;97472.29999999999;;;20.92;100
17950;BME280;9100;48.700;9.316;2022-07-29T00:21:37;97472.90000000001;;;20.94;100
17950;BME280;9100;48.700;9.316;2022-07-29T00:22:37;97474.90000000001;;;20.92;100
17950;BME280;9100;48.700;9.316;2022-07-29T00:23:37;97473.90000000001;;;20.93;100
17950;BME280;9100;48.700;9.316;2022-07-29T00:24:11;97428;;;20.62;100
17950;BME280;9100;48.700;9.316;2022-07-29T00:24:37;97471.6;;;20.92;100
17950;BME280;9100;48.700;9.316;2022-07-29T00:25:37;97465.09999999999;;;20.94;100
17950;BME280;9100;48.700;9.316;2022-07-29T00:26:37;97469.3;;;20.95;100
17950;BME280;9100;48.700;9.316;2022-07-29T00:27:37;97471.90000000001;;;20.95;100
17950;BME280;9100;48.700;9.316;2022-07-29T00:28:37;97477.09999999999;;;20.95;100
17950;BME280;9100;48.700;9.316;2022-07-29T00:29:11;97475.7;;;20.93;100
17950;BME280;9100;48.700;9.316;2022-07-29T00:29:37;97426.9;;;20.63;100
17950;BME280;9100;48.700;9.316;2022-07-29T00:30:37;97481.8;;;20.98;100
17950;BME280;9100;48.700;9.316;2022-07-29T00:31:37;97474.7;;;20.99;100
17950;BME280;9100;48.700;9.316;2022-07-29T00:32:37;97480.7;;;20.99;100
17950;BME280;9100;48.700;9.316;2022-07-29T00:33:37;97479.7;;;21;100
17950;BME280;9100;48.700;9.316;2022-07-29T00:34:11;97477.09999999999;;;20.95;100
17950;BME280;9100;48.700;9.316;2022-07-29T00:34:37;97476.8;;;20.97;100
17950;BME280;9100;48.700;9.316;2022-07-29T00:35:37;97476.3;;;21;100
17950;BME280;9100;48.700;9.316;2022-07-29T00:36:37;97471.1;;;21;100
17950;BME280;9100;48.700;9.316;2022-07-29T00:37:37;97473.5;;;21.01;100
17950;BME280;9100;48.700;9.316;2022-07-29T00:38:37;97478.7;;;21.01;100
17950;BME280;9100;48.700;9.316;2022-07-29T00:39:11;97481;;;20.98;100
17950;BME280;9100;48.700;9.316;2022-07-29T00:39:37;97471.90000000001;;;21;100
17950;BME280;9100;48.700;9.316;2022-07-29T00:40:37;97478.7;;;21.01;100
17950;BME280;9100;48.700;9.316;2022-07-29T00:41:37;97476.09999999999;;;21.01;100
17950;BME280;9100;48.700;9.316;2022-07-29T00:42:44;97469.3;;;21;100
17950;BME280;9100;48.700;9.316;2022-07-29T00:43:37;97467.7;;;20.99;100
17950;BME280;9100;48.700;9.316;2022-07-29T00:44:11;97469.5;;;20.94;100
17950;BME280;9100;48.700;9.316;2022-07-29T00:44:37;97465.59999999999;;;20.96;100
17950;BME280;9100;48.700;9.316;2022-07-29T00:45:37;97467.2;;;20.97;100
17950;BME280;9100;48.700;9.316;2022-07-29T00:46:37;97466.7;;;20.95;100
17950;BME280;9100;48.700;9.316;2022-07-29T00:47:37;97460.90000000001;;;20.93;100
17950;BME280;9100;48.700;9.316;2022-07-29T00:48:37;97460.40000000001;;;20.91;100
17950;BME280;9100;48.700;9.316;2022-07-29T00:49:11;97460.29999999999;;;20.86;100
17950;BME280;9100;48.700;9.316;2022-07-29T00:49:37;97458.3;;;20.88;100
17950;BME280;9100;48.700;9.316;2022-07-29T00:50:37;97464.3;;;20.89;100
17950;BME280;9100;48.700;9.316;2022-07-29T00:51:37;97460.1;;;20.88;100
17950;BME280;9100;48.700;9.316;2022-07-29T00:52:37;97455.2;;;20.86;100
17950;BME280;9100;48.700;9.316;2022-07-29T00:53:37;97464;;;20.85;100
17950;BME280;9100;48.700;9.316;2022-07-29T00:54:11;97458.5;;;20.76;100
17950;BME280;9100;48.700;9.316;2022-07-29T00:54:37;97465.5;;;20.81;100
17950;BME280;9100;48.700;9.316;2022-07-29T00:55:37;97467.6;;;20.84;100
17950;BME280;9100;48.700;9.316;2022-07-29T00:56:37;97458.8;;;20.85;100
17950;BME280;9100;48.700;9.316;2022-07-29T00:57:37;97465.8;;;20.85;100
17950;BME280;9100;48.700;9.316;2022-07-29T00:58:37;97466.6;;;20.85;100
17950;BME280;9100;48.700;9.316;2022-07-29T00:59:11;97459.5;;;20.8;100
17950;BME280;9100;48.700;9.316;2022-07-29T00:59:37;97460.90000000001;;;20.83;100
17950;BME280;9100;48.700;9.316;2022-07-29T01:00:37;97458;;;20.85;100
17950;BME280;9100;48.700;9.316;2022-07-29T01:01:37;97458.8;;;20.85;100
17950;BME280;9100;48.700;9.316;2022-07-29T01:02:37;97455.6;;;20.83;100
17950;BME280;9100;48.700;9.316;2022-07-29T01:03:37;97455.6;;;20.83;100
17950;BME280;9100;48.700;9.316;2022-07-29T01:04:11;97453.8;;;20.78;100
17950;BME280;9100;48.700;9.316;2022-07-29T01:04:37;97449.40000000001;;;20.79;100
17950;BME280;9100;48.700;9.316;2022-07-29T01:05:37;97449.1;;;20.8;100
17950;BME280;9100;48.700;9.316;2022-07-29T01:06:37;97451;;;20.8;100
17950;BME280;9100;48.700;9.316;2022-07-29T01:07:37;97454.6;;;20.79;100
17950;BME280;9100;48.700;9.316;2022-07-29T01:08:37;97455.9;;;20.76;100
17950;BME280;9100;48.700;9.316;2022-07-29T01:09:11;97448.8;;;20.72;100
17950;BME280;9100;48.700;9.316;2022-07-29T01:09:37;97448.29999999999;;;20.75;100
17950;BME280;9100;48.700;9.316;2022-07-29T01:10:37;97449.90000000001;;;20.76;100
17950;BME280;9100;48.700;9.316;2022-07-29T01:11:37;97450.9;;;20.75;100
17950;BME280;9100;48.700;9.316;2022-07-29T01:12:37;97450.9;;;20.75;100
17950;BME280;9100;48.700;9.316;2022-07-29T01:13:37;97444.1;;;20.74;100
17950;BME280;9100;48.700;9.316;2022-07-29T01:14:11;97450.09999999999;;;20.69;100
17950;BME280;9100;48.700;9.316;2022-07-29T01:14:37;97453.2;;;20.71;100
17950;BME280;9100;48.700;9.316;2022-07-29T01:15:38;97450.40000000001;;;20.73;100
17950;BME280;9100;48.700;9.316;2022-07-29T01:16:38;97440.7;;;20.73;100
17950;BME280;9100;48.700;9.316;2022-07-29T01:17:39;97441;;;20.72;100
17950;BME280;9100;48.700;9.316;2022-07-29T01:18:37;97440.5;;;20.7;100
17950;BME280;9100;48.700;9.316;2022-07-29T01:19:13;97442.2;;;20.64;100
17950;BME280;9100;48.700;9.316;2022-07-29T01:19:44;97437.59999999999;;;20.66;100
17950;BME280;9100;48.700;9.316;2022-07-29T01:20:42;97441.7;;;20.67;100
17950;BME280;9100;48.700;9.316;2022-07-29T01:21:43;97447.2;;;20.66;100
17950;BME280;9100;48.700;9.316;2022-07-29T01:22:42;97443.8;;;20.65;100
17950;BME280;9100;48.700;9.316;2022-07-29T01:23:40;97439.09999999999;;;20.62;100
17950;BME280;9100;48.700;9.316;2022-07-29T01:24:11;97444.8;;;20.59;100
17950;BME280;9100;48.700;9.316;2022-07-29T01:24:39;97443.8;;;20.6;100
17950;BME280;9100;48.700;9.316;2022-07-29T01:25:45;97442.5;;;20.63;100
17950;BME280;9100;48.700;9.316;2022-07-29T01:26:41;97448.7;;;20.62;100
17950;BME280;9100;48.700;9.316;2022-07-29T01:27:38;97443.5;;;20.62;100
17950;BME280;9100;48.700;9.316;2022-07-29T01:28:39;97438.3;;;20.62;100
17950;BME280;9100;48.700;9.316;2022-07-29T01:29:11;97437.3;;;20.58;100
17950;BME280;9100;48.700;9.316;2022-07-29T01:29:38;97444.6;;;20.61;100
17950;BME280;9100;48.700;9.316;2022-07-29T01:30:37;97434.7;;;20.63;100
17950;BME280;9100;48.700;9.316;2022-07-29T01:31:39;97441.5;;;20.64;100
17950;BME280;9100;48.700;9.316;2022-07-29T01:32:37;97441.7;;;20.62;100
17950;BME280;9100;48.700;9.316;2022-07-29T01:33:38;97436.8;;;20.61;100
17950;BME280;9100;48.700;9.316;2022-07-29T01:34:11;97435.90000000001;;;20.55;100
17950;BME280;9100;48.700;9.316;2022-07-29T01:34:39;97438.8;;;20.59;100
17950;BME280;9100;48.700;9.316;2022-07-29T01:35:38;97434.2;;;20.61;100
17950;BME280;9100;48.700;9.316;2022-07-29T01:36:40;97439.4;;;20.61;100
17950;BME280;9100;48.700;9.316;2022-07-29T01:37:37;97440.4;;;20.6;100
17950;BME280;9100;48.700;9.316;2022-07-29T01:38:37;97435.2;;;20.6;100
17950;BME280;9100;48.700;9.316;2022-07-29T01:39:11;97437;;;20.54;100
17950;BME280;9100;48.700;9.316;2022-07-29T01:39:37;97435.7;;;20.57;100
17950;BME280;9100;48.700;9.316;2022-07-29T01:40:39;97437.3;;;20.58;100
17950;BME280;9100;48.700;9.316;2022-07-29T01:41:38;97438.8;;;20.59;100
17950;BME280;9100;48.700;9.316;2022-07-29T01:42:38;97432.8;;;20.58;100
17950;BME280;9100;48.700;9.316;2022-07-29T01:43:38;97432.8;;;20.58;100
17950;BME280;9100;48.700;9.316;2022-07-29T01:44:12;97431;;;20.54;100
17950;BME280;9100;48.700;9.316;2022-07-29T01:44:37;97427.3;;;20.55;100
17950;BME280;9100;48.700;9.316;2022-07-29T01:45:38;97425.3;;;20.57;100
17950;BME280;9100;48.700;9.316;2022-07-29T01:46:38;97428.9;;;20.56;100
17950;BME280;9100;48.700;9.316;2022-07-29T01:47:37;97427.3;;;20.55;100
17950;BME280;9100;48.700;9.316;2022-07-29T01:48:38;97429.2;;;20.54;100
17950;BME280;9100;48.700;9.316;2022-07-29T01:49:11;97428.9;;;20.51;100
17950;BME280;9100;48.700;9.316;2022-07-29T01:49:39;97427.09999999999;;;20.51;100
17950;BME280;9100;48.700;9.316;2022-07-29T01:50:46;97425.8;;;20.54;100
17950;BME280;9100;48.700;9.316;2022-07-29T01:51:40;97428.4;;;20.54;100
17950;BME280;9100;48.700;9.316;2022-07-29T01:52:38;97424.5;;;20.51;100
17950;BME280;9100;48.700;9.316;2022-07-29T01:53:37;97435.1;;;20.5;100
17950;BME280;9100;48.700;9.316;2022-07-29T01:54:12;97428.8;;;20.46;100
17950;BME280;9100;48.700;9.316;2022-07-29T01:54:38;97426;;;20.47;100
17950;BME280;9100;48.700;9.316;2022-07-29T01:55:38;97429.9;;;20.5;100
17950;BME280;9100;48.700;9.316;2022-07-29T01:56:37;97433.5;;;20.49;100
17950;BME280;9100;48.700;9.316;2022-07-29T01:57:37;97441.3;;;20.49;100
17950;BME280;9100;48.700;9.316;2022-07-29T01:58:37;97387.3;;;20.19;100
17950;BME280;9100;48.700;9.316;2022-07-29T01:59:11;97435.29999999999;;;20.43;100
17950;BME280;9100;48.700;9.316;2022-07-29T01:59:37;97436.90000000001;;;20.44;100
17950;BME280;9100;48.700;9.316;2022-07-29T02:00:37;97439.20000000001;;;20.46;100
17950;BME280;9100;48.700;9.316;2022-07-29T02:01:37;97438.4;;;20.45;100
17950;BME280;9100;48.700;9.316;2022-07-29T02:02:37;97444.4;;;20.46;100
17950;BME280;9100;48.700;9.316;2022-07-29T02:03:37;97442.8;;;20.45;100
17950;BME280;9100;48.700;9.316;2022-07-29T02:04:11;97441.8;;;20.41;100
17950;BME280;9100;48.700;9.316;2022-07-29T02:04:37;97439.70000000001;;;20.43;100
17950;BME280;9100;48.700;9.316;2022-07-29T02:05:37;97442.1;;;20.44;100
17950;BME280;9100;48.700;9.316;2022-07-29T02:06:37;97436.3;;;20.42;100
17950;BME280;9100;48.700;9.316;2022-07-29T02:07:37;97440.7;;;20.42;100
17950;BME280;9100;48.700;9.316;2022-07-29T02:08:37;97437.40000000001;;;20.41;100
17950;BME280;9100;48.700;9.316;2022-07-29T02:09:11;97440.7;;;20.37;100
17950;BME280;9100;48.700;9.316;2022-07-29T02:09:37;97443.8;;;20.39;100
17950;BME280;9100;48.700;9.316;2022-07-29T02:10:37;97443.8;;;20.39;100
17950;BME280;9100;48.700;9.316;2022-07-29T02:11:37;97438.7;;;20.39;100
17950;BME280;9100;48.700;9.316;2022-07-29T02:12:37;97430.1;;;20.38;100
17950;BME280;9100;48.700;9.316;2022-07-29T02:13:37;97440.7;;;20.37;100
17950;BME280;9100;48.700;9.316;2022-07-29T02:14:11;97434.40000000001;;;20.32;100
17950;BME280;9100;48.700;9.316;2022-07-29T02:14:38;97433.2;;;20.35;100
17950;BME280;9100;48.700;9.316;2022-07-29T02:15:37;97432.7;;;20.38;100
17950;BME280;9100;48.700;9.316;2022-07-29T02:16:37;97433.7;;;20.37;100
17950;BME280;9100;48.700;9.316;2022-07-29T02:17:39;97429.2;;;20.32;100
17950;BME280;9100;48.700;9.316;2022-07-29T02:18:37;97430.8;;;20.33;100
17950;BME280;9100;48.700;9.316;2022-07-29T02:19:11;97434.90000000001;;;20.29;100
17950;BME280;9100;48.700;9.316;2022-07-29T02:19:37;97430.3;;;20.31;100
17950;BME280;9100;48.700;9.316;2022-07-29T02:20:37;97422.5;;;20.31;100
17950;BME280;9100;48.700;9.316;2022-07-29T02:21:37;97432.9;;;20.31;100
17950;BME280;9100;48.700;9.316;2022-07-29T02:22:37;97425.3;;;20.3;100
17950;BME280;9100;48.700;9.316;2022-07-29T02:23:37;97428.9;;;20.29;100
17950;BME280;9100;48.700;9.316;2022-07-29T02:24:11;97429.9;;;20.23;100
17950;BME280;9100;48.700;9.316;2022-07-29T02:24:37;97428.59999999999;;;20.25;100
17950;BME280;9100;48.700;9.316;2022-07-29T02:25:37;97420.4;;;20.28;100
17950;BME280;9100;48.700;9.316;2022-07-29T02:26:37;97428.9;;;20.29;100
17950;BME280;9100;48.700;9.316;2022-07-29T02:27:37;97429.7;;;20.29;100
17950;BME280;9100;48.700;9.316;2022-07-29T02:28:37;97427.09999999999;;;20.29;100
17950;BME280;9100;48.700;9.316;2022-07-29T02:29:11;97424.5;;;20.24;100
17950;BME280;9100;48.700;9.316;2022-07-29T02:29:37;97425;;;20.26;100
17950;BME280;9100;48.700;9.316;2022-07-29T02:30:39;97426.59999999999;;;20.27;100
17950;BME280;9100;48.700;9.316;2022-07-29T02:31:37;97422.40000000001;;;20.26;100
17950;BME280;9100;48.700;9.316;2022-07-29T02:32:37;97425;;;20.26;100
17950;BME280;9100;48.700;9.316;2022-07-29T02:33:37;97420.8;;;20.25;100
17950;BME280;9100;48.700;9.316;2022-07-29T02:34:11;97423.40000000001;;;20.2;100
17950;BME280;9100;48.700;9.316;2022-07-29T02:34:37;97423.1;;;20.22;100
17950;BME280;9100;48.700;9.316;2022-07-29T02:35:37;97425.5;;;20.23;100
17950;BME280;9100;48.700;9.316;2022-07-29T02:36:37;97422.90000000001;;;20.23;100
17950;BME280;9100;48.700;9.316;2022-07-29T02:37:37;97422.90000000001;;;20.23;100
17950;BME280;9100;48.700;9.316;2022-07-29T02:38:37;97430.7;;;20.23;100
17950;BME280;9100;48.700;9.316;2022-07-29T02:39:11;97425.40000000001;;;20.18;100
17950;BME280;9100;48.700;9.316;2022-07-29T02:39:37;97427.5;;;20.21;100
17950;BME280;9100;48.700;9.316;2022-07-29T02:40:37;97424.5;;;20.24;100
17950;BME280;9100;48.700;9.316;2022-07-29T02:41:40;97427.59999999999;;;20.26;100
17950;BME280;9100;48.700;9.316;2022-07-29T02:42:37;97425;;;20.26;100
17950;BME280;9100;48.700;9.316;2022-07-29T02:43:37;97425.5;;;20.23;100
17950;BME280;9100;48.700;9.316;2022-07-29T02:44:11;97420.8;;;20.2;100
17950;BME280;9100;48.700;9.316;2022-07-29T02:44:37;97422.29999999999;;;20.21;100
17950;BME280;9100;48.700;9.316;2022-07-29T02:45:37;97416.09999999999;;;20.22;100
17950;BME280;9100;48.700;9.316;2022-07-29T02:46:37;97423.90000000001;;;20.22;100
17950;BME280;9100;48.700;9.316;2022-07-29T02:47:39;97418.7;;;20.22;100
17950;BME280;9100;48.700;9.316;2022-07-29T02:48:38;97426;;;20.2;100
17950;BME280;9100;48.700;9.316;2022-07-29T02:49:13;97424.90000000001;;;20.16;100
17950;BME280;9100;48.700;9.316;2022-07-29T02:49:37;97420.2;;;20.18;100
17950;BME280;9100;48.700;9.316;2022-07-29T02:50:37;97428;;;20.18;100
17950;BME280;9100;48.700;9.316;2022-07-29T02:51:40;97420;;;20.2;100
17950;BME280;9100;48.700;9.316;2022-07-29T02:52:37;97420;;;20.2;100
17950;BME280;9100;48.700;9.316;2022-07-29T02:53:37;97421;;;20.19;100
17950;BME280;9100;48.700;9.316;2022-07-29T02:54:14;97420.2;;;20.13;100
17950;BME280;9100;48.700;9.316;2022-07-29T02:54:38;97417.9;;;20.17;100
17950;BME280;9100;48.700;9.316;2022-07-29T02:55:37;97417.6;;;20.18;100
17950;BME280;9100;48.700;9.316;2022-07-29T02:56:37;97416.6;;;20.19;100
17950;BME280;9100;48.700;9.316;2022-07-29T02:57:39;97419.2;;;20.19;100
17950;BME280;9100;48.700;9.316;2022-07-29T02:58:38;97424.40000000001;;;20.19;100
17950;BME280;9100;48.700;9.316;2022-07-29T02:59:11;97420;;;20.15;100
17950;BME280;9100;48.700;9.316;2022-07-29T02:59:37;97420.5;;;20.17;100
17950;BME280;9100;48.700;9.316;2022-07-29T03:00:38;97418.7;;;20.17;100
17950;BME280;9100;48.700;9.316;2022-07-29T03:01:38;97423.1;;;20.17;100
17950;BME280;9100;48.700;9.316;2022-07-29T03:02:37;97421.8;;;20.14;100
17950;BME280;9100;48.700;9.316;2022-07-29T03:03:37;97423.6;;;20.14;100
17950;BME280;9100;48.700;9.316;2022-07-29T03:04:11;97425.3;;;20.08;100
17950;BME280;9100;48.700;9.316;2022-07-29T03:04:37;97421.7;;;20.09;100
17950;BME280;9100;48.700;9.316;2022-07-29T03:05:37;97425.9;;;20.1;100
17950;BME280;9100;48.700;9.316;2022-07-29T03:06:37;97424.3;;;20.09;100
17950;BME280;9100;48.700;9.316;2022-07-29T03:07:37;97422.5;;;20.1;100
17950;BME280;9100;48.700;9.316;2022-07-29T03:08:37;97424.59999999999;;;20.08;100
17950;BME280;9100;48.700;9.316;2022-07-29T03:09:11;97420.1;;;20.03;100
17950;BME280;9100;48.700;9.316;2022-07-29T03:09:37;97419.1;;;20.04;100
17950;BME280;9100;48.700;9.316;2022-07-29T03:10:37;97418;;;20.05;100
17950;BME280;9100;48.700;9.316;2022-07-29T03:11:37;97418;;;20.05;100
17950;BME280;9100;48.700;9.316;2022-07-29T03:12:37;97420.9;;;20.04;100
17950;BME280;9100;48.700;9.316;2022-07-29T03:13:37;97429.5;;;20.04;100
17950;BME280;9100;48.700;9.316;2022-07-29T03:14:11;97418.2;;;19.99;100
17950;BME280;9100;48.700;9.316;2022-07-29T03:14:37;97421.40000000001;;;20.01;100
17950;BME280;9100;48.700;9.316;2022-07-29T03:15:37;97422.90000000001;;;20.02;100
17950;BME280;9100;48.700;9.316;2022-07-29T03:16:37;97426.59999999999;;;20.01;100
17950;BME280;9100;48.700;9.316;2022-07-29T03:17:37;97428.4;;;20;100
17950;BME280;9100;48.700;9.316;2022-07-29T03:18:37;97427.59999999999;;;20;100
17950;BME280;9100;48.700;9.316;2022-07-29T03:19:11;97420.8;;;19.94;100
17950;BME280;9100;48.700;9.316;2022-07-29T03:19:37;97381.8;;;19.67;100
17950;BME280;9100;48.700;9.316;2022-07-29T03:20:37;97429.4;;;19.99;100
17950;BME280;9100;48.700;9.316;2022-07-29T03:21:37;97423.2;;;20;100
17950;BME280;9100;48.700;9.316;2022-07-29T03:22:38;97427.3;;;20.01;100
17950;BME280;9100;48.700;9.316;2022-07-29T03:23:37;97431;;;20;100
17950;BME280;9100;48.700;9.316;2022-07-29T03:24:23;97419;;;19.94;100
17950;BME280;9100;48.700;9.316;2022-07-29T03:24:37;97424.7;;;19.96;100
17950;BME280;9100;48.700;9.316;2022-07-29T03:25:37;97431.5;;;19.97;100
17950;BME280;9100;48.700;9.316;2022-07-29T03:26:37;97426.3;;;19.97;100
17950;BME280;9100;48.700;9.316;2022-07-29T03:27:37;97434;;;19.97;100
17950;BME280;9100;48.700;9.316;2022-07-29T03:28:37;97425.5;;;19.97;100
17950;BME280;9100;48.700;9.316;2022-07-29T03:29:11;97433;;;19.93;100
17950;BME280;9100;48.700;9.316;2022-07-29T03:29:37;97425;;;19.95;100
17950;BME280;9100;48.700;9.316;2022-07-29T03:30:37;97426.3;;;19.97;100
17950;BME280;9100;48.700;9.316;2022-07-29T03:31:37;97418.5;;;19.97;100
17950;BME280;9100;48.700;9.316;2022-07-29T03:32:37;97418.5;;;19.97;100
17950;BME280;9100;48.700;9.316;2022-07-29T03:33:37;97427.8;;;19.98;100
17950;BME280;9100;48.700;9.316;2022-07-29T03:34:11;97425.2;;;19.93;100
17950;BME280;9100;48.700;9.316;2022-07-29T03:34:37;97421.6;;;19.94;100
17950;BME280;9100;48.700;9.316;2022-07-29T03:35:37;97382.8;;;19.66;100
17950;BME280;9100;48.700;9.316;2022-07-29T03:36:37;97420.5;;;19.95;100
17950;BME280;9100;48.700;9.316;2022-07-29T03:37:37;97424.2;;;19.94;100
17950;BME280;9100;48.700;9.316;2022-07-29T03:38:37;97431.9;;;19.94;100
17950;BME280;9100;48.700;9.316;2022-07-29T03:39:11;97429.3;;;19.89;100
17950;BME280;9100;48.700;9.316;2022-07-29T03:39:38;97432.4;;;19.91;100
17950;BME280;9100;48.700;9.316;2022-07-29T03:40:38;97422.6;;;19.93;100
17950;BME280;9100;48.700;9.316;2022-07-29T03:41:37;97431.9;;;19.94;100
17950;BME280;9100;48.700;9.316;2022-07-29T03:42:37;97430.4;;;19.93;100
17950;BME280;9100;48.700;9.316;2022-07-29T03:43:38;97425.2;;;19.93;100
17950;BME280;9100;48.700;9.316;2022-07-29T03:44:11;97432.1;;;19.88;100
17950;BME280;9100;48.700;9.316;2022-07-29T03:44:37;97425.7;;;19.9;100
17950;BME280;9100;48.700;9.316;2022-07-29T03:45:37;97380.4;;;19.59;100
17950;BME280;9100;48.700;9.316;2022-07-29T03:46:37;97429.8;;;19.91;100
17950;BME280;9100;48.700;9.316;2022-07-29T03:47:37;97429.8;;;19.91;100
17950;BME280;9100;48.700;9.316;2022-07-29T03:48:38;97430.3;;;19.88;100
17950;BME280;9100;48.700;9.316;2022-07-29T03:49:11;97428.2;;;19.85;100
17950;BME280;9100;48.700;9.316;2022-07-29T03:49:37;97426.9;;;19.88;100
17950;BME280;9100;48.700;9.316;2022-07-29T03:50:37;97432.9;;;19.88;100
17950;BME280;9100;48.700;9.316;2022-07-29T03:51:37;97438.9;;;19.89;100
17950;BME280;9100;48.700;9.316;2022-07-29T03:52:37;97425.40000000001;;;19.87;100
17950;BME280;9100;48.700;9.316;2022-07-29T03:53:37;97432.4;;;19.86;100
17950;BME280;9100;48.700;9.316;2022-07-29T03:54:11;97428.7;;;19.82;100
17950;BME280;9100;48.700;9.316;2022-07-29T03:54:37;97431.3;;;19.82;100
17950;BME280;9100;48.700;9.316;2022-07-29T03:55:37;97431.8;;;19.84;100
17950;BME280;9100;48.700;9.316;2022-07-29T03:56:37;97435.5;;;19.83;100
17950;BME280;9100;48.700;9.316;2022-07-29T03:57:37;97428.9;;;19.8;100
17950;BME280;9100;48.700;9.316;2022-07-29T03:58:37;97432.6;;;19.79;100
17950;BME280;9100;48.700;9.316;2022-07-29T03:59:11;97430.7;;;19.75;100
17950;BME280;9100;48.700;9.316;2022-07-29T03:59:37;97424.5;;;19.76;100
17950;BME280;9100;48.700;9.316;2022-07-29T04:00:37;97434.90000000001;;;19.76;100
17950;BME280;9100;48.700;9.316;2022-07-29T04:01:37;97430.4;;;19.76;100
17950;BME280;9100;48.700;9.316;2022-07-29T04:02:37;97431.2;;;19.77;100
17950;BME280;9100;48.700;9.316;2022-07-29T04:03:37;97431.2;;;19.77;100
17950;BME280;9100;48.700;9.316;2022-07-29T04:04:11;97432;;;19.72;100
17950;BME280;9100;48.700;9.316;2022-07-29T04:04:37;97430.9;;;19.73;100
17950;BME280;9100;48.700;9.316;2022-07-29T04:05:37;97430.7;;;19.75;100
17950;BME280;9100;48.700;9.316;2022-07-29T04:06:37;97433.3;;;19.75;100
17950;BME280;9100;48.700;9.316;2022-07-29T04:07:37;97435.90000000001;;;19.75;100
17950;BME280;9100;48.700;9.316;2022-07-29T04:08:37;97433.3;;;19.75;100
17950;BME280;9100;48.700;9.316;2022-07-29T04:09:11;97437.40000000001;;;19.71;100
17950;BME280;9100;48.700;9.316;2022-07-29T04:09:37;97430.9;;;19.73;100
17950;BME280;9100;48.700;9.316;2022-07-29T04:10:37;97440;;;19.76;100
17950;BME280;9100;48.700;9.316;2022-07-29T04:11:37;97445;;;19.77;100
17950;BME280;9100;48.700;9.316;2022-07-29T04:12:37;97443.2;;;19.78;100
17950;BME280;9100;48.700;9.316;2022-07-29T04:13:37;97445.8;;;19.78;100
17950;BME280;9100;48.700;9.316;2022-07-29T04:14:11;97442.9;;;19.74;100
17950;BME280;9100;48.700;9.316;2022-07-29T04:14:37;97441.9;;;19.75;100
17950;BME280;9100;48.700;9.316;2022-07-29T04:15:37;97446.6;;;19.78;100
17950;BME280;9100;48.700;9.316;2022-07-29T04:16:37;97451.70000000001;;;19.78;100
17950;BME280;9100;48.700;9.316;2022-07-29T04:17:37;97451;;;19.78;100
17950;BME280;9100;48.700;9.316;2022-07-29T04:18:37;97448.40000000001;;;19.78;100
17950;BME280;9100;48.700;9.316;2022-07-29T04:19:11;97450.9;;;19.73;100
17950;BME280;9100;48.700;9.316;2022-07-29T04:19:37;97448.8;;;19.75;100
17950;BME280;9100;48.700;9.316;2022-07-29T04:20:37;97451.2;;;19.76;100
17950;BME280;9100;48.700;9.316;2022-07-29T04:21:37;97446.8;;;19.77;100
17950;BME280;9100;48.700;9.316;2022-07-29T04:22:37;97453.5;;;19.78;100
17950;BME280;9100;48.700;9.316;2022-07-29T04:23:37;97444.7;;;19.74;100
17950;BME280;9100;48.700;9.316;2022-07-29T04:24:11;97456.9;;;19.73;100
17950;BME280;9100;48.700;9.316;2022-07-29T04:24:37;97457.2;;;19.77;100
17950;BME280;9100;48.700;9.316;2022-07-29T04:25:37;97458;;;19.77;100
17950;BME280;9100;48.700;9.316;2022-07-29T04:26:37;97457.2;;;19.77;100
17950;BME280;9100;48.700;9.316;2022-07-29T04:27:37;97455.6;;;19.76;100
17950;BME280;9100;48.700;9.316;2022-07-29T04:28:37;97459.2;;;19.75;100
17950;BME280;9100;48.700;9.316;2022-07-29T04:29:11;97458.1;;;19.71;100
17950;BME280;9100;48.700;9.316;2022-07-29T04:29:37;97458.7;;;19.73;100
17950;BME280;9100;48.700;9.316;2022-07-29T04:30:37;97455;;;19.74;100
17950;BME280;9100;48.700;9.316;2022-07-29T04:31:37;97462.8;;;19.74;100
17950;BME280;9100;48.700;9.316;2022-07-29T04:32:37;97463.59999999999;;;19.74;100
17950;BME280;9100;48.700;9.316;2022-07-29T04:33:37;97460;;;19.75;100
17950;BME280;9100;48.700;9.316;2022-07-29T04:34:11;97452.20000000001;;;19.7;100